Time;durP1;ratioP1;P1;durP2;ratioP2;P2;SDS_P1;SDS_P2;PMS_P1;PMS_P2;Temp;Humidity;BMP_temperature;BMP_pressure;BME280_temperature;BME280_humidity;BME280_pressure;Samples;Min_cycle;Max_cycle;Signal;HPM_P1;HPM_P2
2023/09/29 00:01:35;;;;;;;11.70;6.60;;;;;;;10.56;100.00;94315.59;5031744;28;20045;-60
2023/09/29 00:04:04;;;;;;;11.07;6.80;;;;;;;10.52;100.00;94312.09;5031222;28;20454;-59
2023/09/29 00:06:32;;;;;;;10.52;6.18;;;;;;;10.42;100.00;94321.19;5031598;28;20045;-59
2023/09/29 00:09:00;;;;;;;11.00;6.50;;;;;;;10.31;100.00;94315.81;5029351;28;20045;-59
2023/09/29 00:11:30;;;;;;;10.70;6.28;;;;;;;10.21;100.00;94320.16;5030748;28;20049;-60
2023/09/29 00:13:58;;;;;;;12.43;6.40;;;;;;;10.22;100.00;94321.72;5031166;28;20046;-59
2023/09/29 00:16:25;;;;;;;11.63;6.18;;;;;;;10.24;100.00;94318.56;5031229;28;20052;-59
2023/09/29 00:18:52;;;;;;;10.48;6.20;;;;;;;10.26;100.00;94316.19;5030506;28;20053;-59
2023/09/29 00:21:19;;;;;;;21.97;12.13;;;;;;;10.26;100.00;94327.97;5030206;28;20037;-59
2023/09/29 00:23:46;;;;;;;16.08;9.40;;;;;;;10.31;100.00;94315.81;5029522;28;20057;-59
2023/09/29 00:26:14;;;;;;;14.15;7.30;;;;;;;10.30;100.00;94319.72;5045192;28;20915;-60
2023/09/29 00:28:40;;;;;;;12.73;6.60;;;;;;;10.33;100.00;94314.22;5030819;28;20527;-60
2023/09/29 00:31:08;;;;;;;10.85;6.38;;;;;;;10.29;100.00;94307.94;5029623;28;20076;-60
2023/09/29 00:33:35;;;;;;;11.60;6.23;;;;;;;10.26;100.00;94310.72;5028997;28;20095;-59
2023/09/29 00:36:02;;;;;;;11.48;6.70;;;;;;;10.26;100.00;94311.53;5026128;28;20398;-60
2023/09/29 00:38:29;;;;;;;10.57;6.38;;;;;;;10.26;100.00;94305.22;5030719;28;20041;-60
2023/09/29 00:40:57;;;;;;;9.57;6.00;;;;;;;10.27;100.00;94313.06;5030256;28;20713;-60
2023/09/29 00:43:24;;;;;;;12.27;6.35;;;;;;;10.25;100.00;94309.94;5029201;28;20094;-60
2023/09/29 00:45:51;;;;;;;10.47;6.17;;;;;;;10.11;100.00;94307.31;5030274;28;20050;-59
2023/09/29 00:48:18;;;;;;;11.98;6.50;;;;;;;10.00;100.00;94307.41;5030492;28;20501;-59
2023/09/29 00:50:45;;;;;;;10.85;6.25;;;;;;;9.97;100.00;94310.94;5030770;28;20410;-59
2023/09/29 00:53:16;;;;;;;10.25;6.00;;;;;;;10.00;100.00;94315.63;5028373;28;20434;-59
2023/09/29 00:55:45;;;;;;;10.88;6.50;;;;;;;10.03;100.00;94312.06;5030709;28;20045;-59
2023/09/29 00:58:13;;;;;;;15.77;7.80;;;;;;;10.02;100.00;94316.00;5027593;28;20699;-59
2023/09/29 01:00:41;;;;;;;15.73;8.95;;;;;;;9.97;100.00;94313.66;5030600;28;20103;-59
2023/09/29 01:03:10;;;;;;;12.45;6.80;;;;;;;9.98;100.00;94305.03;5030031;28;20106;-59
2023/09/29 01:05:44;;;;;;;10.70;6.28;;;;;;;9.97;100.00;94303.47;5016373;28;20052;-60
2023/09/29 01:08:21;;;;;;;10.70;6.60;;;;;;;9.94;100.00;94303.50;5029887;28;20048;-59
2023/09/29 01:10:49;;;;;;;11.97;6.00;;;;;;;9.96;100.00;94309.34;5029930;28;20048;-59
2023/09/29 01:13:16;;;;;;;12.82;6.38;;;;;;;9.96;100.00;94309.34;5029949;28;20038;-59
2023/09/29 01:15:43;;;;;;;11.00;6.43;;;;;;;9.94;100.00;94301.56;5030105;28;20437;-59
2023/09/29 01:18:10;;;;;;;12.85;6.63;;;;;;;9.94;100.00;94307.03;5029665;28;20067;-60
2023/09/29 01:20:40;;;;;;;11.68;6.80;;;;;;;9.96;100.00;94306.63;5030470;28;20091;-60
2023/09/29 01:23:08;;;;;;;11.23;6.07;;;;;;;9.92;100.00;94303.13;5029636;28;20046;-59
2023/09/29 01:25:36;;;;;;;14.68;6.22;;;;;;;9.90;100.00;94308.22;5030262;28;20046;-59
2023/09/29 01:28:05;;;;;;;11.88;7.03;;;;;;;9.89;100.00;94315.66;5029451;28;20043;-60
2023/09/29 01:30:32;;;;;;;10.48;6.60;;;;;;;9.89;100.00;94303.94;5030169;28;20107;-60
2023/09/29 01:32:59;;;;;;;11.30;6.40;;;;;;;9.86;100.00;94312.94;5029616;28;20502;-60
2023/09/29 01:35:30;;;;;;;11.60;6.70;;;;;;;9.82;100.00;94307.50;5028283;28;20103;-60
2023/09/29 01:38:00;;;;;;;11.43;6.68;;;;;;;9.77;100.00;94303.22;5029372;28;20415;-60
2023/09/29 01:40:28;;;;;;;11.85;7.05;;;;;;;9.68;100.00;94300.16;5028522;28;20065;-60
2023/09/29 01:42:56;;;;;;;13.40;7.22;;;;;;;9.73;100.00;94304.41;5029381;28;20409;-61
2023/09/29 01:45:25;;;;;;;13.00;7.00;;;;;;;9.70;100.00;94307.94;5029592;28;20041;-60
2023/09/29 01:47:52;;;;;;;11.87;6.87;;;;;;;9.68;100.00;94308.38;5029426;28;20052;-59
2023/09/29 01:50:21;;;;;;;12.77;7.28;;;;;;;9.69;100.00;94300.91;5029573;28;20115;-61
2023/09/29 01:52:49;;;;;;;11.45;6.68;;;;;;;9.63;100.00;94305.25;5029073;28;20483;-59
2023/09/29 01:55:21;;;;;;;11.52;6.70;;;;;;;9.65;100.00;94311.13;5029654;28;20044;-60
2023/09/29 01:57:49;;;;;;;11.93;6.90;;;;;;;9.59;100.00;94311.53;5026836;28;20391;-57
2023/09/29 02:00:23;;;;;;;10.43;6.40;;;;;;;9.44;100.00;94318.28;5029120;28;20448;-57
2023/09/29 02:02:53;;;;;;;12.45;6.97;;;;;;;9.22;100.00;94319.53;5029105;28;20048;-57
2023/09/29 02:05:20;;;;;;;11.00;6.90;;;;;;;9.23;100.00;94313.66;5027814;28;20041;-57
2023/09/29 02:07:49;;;;;;;10.68;6.32;;;;;;;9.25;100.00;94310.53;5028932;28;20037;-57
2023/09/29 02:10:20;;;;;;;22.83;13.50;;;;;;;9.27;100.00;94319.13;5029311;28;20142;-57
2023/09/29 02:12:58;;;;;;;14.07;8.23;;;;;;;9.32;100.00;94313.25;5028514;28;20045;-56
2023/09/29 02:15:26;;;;;;;13.98;7.55;;;;;;;9.37;100.00;94318.28;5029228;28;20040;-57
2023/09/29 02:17:53;;;;;;;12.25;6.97;;;;;;;9.40;100.00;94315.53;5028627;28;20453;-57
2023/09/29 02:20:25;;;;;;;10.55;6.32;;;;;;;9.28;100.00;94324.19;5029193;28;20402;-57
2023/09/29 02:22:55;;;;;;;12.15;6.78;;;;;;;9.24;100.00;94317.97;5028386;28;20049;-57
2023/09/29 02:25:25;;;;;;;12.60;6.73;;;;;;;9.28;100.00;94318.72;5029189;28;20103;-57
2023/09/29 02:27:54;;;;;;;16.15;6.70;;;;;;;9.30;100.00;94310.91;5028632;28;20048;-57
2023/09/29 02:30:20;;;;;;;10.60;6.43;;;;;;;9.34;100.00;94317.13;5029060;28;20041;-58
2023/09/29 02:32:47;;;;;;;10.65;6.65;;;;;;;9.35;100.00;94315.16;5028662;28;20040;-57
2023/09/29 02:35:14;;;;;;;11.93;6.43;;;;;;;9.30;100.00;94307.38;5030744;28;20376;-57
2023/09/29 02:37:41;;;;;;;14.30;7.10;;;;;;;9.31;100.00;94303.44;5032021;28;20662;-58
2023/09/29 02:40:12;;;;;;;11.57;6.50;;;;;;;9.30;100.00;94301.91;5032441;28;20041;-57
2023/09/29 02:42:39;;;;;;;12.75;6.85;;;;;;;9.24;100.00;94307.00;5033100;28;20153;-58
2023/09/29 02:45:07;;;;;;;13.30;6.97;;;;;;;9.10;100.00;94307.84;5032317;28;20045;-57
2023/09/29 02:47:35;;;;;;;11.20;7.10;;;;;;;9.18;100.00;94309.38;5033194;28;20045;-58
2023/09/29 02:50:04;;;;;;;16.27;9.67;;;;;;;9.17;100.00;94318.75;5032349;28;20037;-57
2023/09/29 02:52:31;;;;;;;21.85;11.93;;;;;;;9.09;100.00;94311.72;5033114;28;20048;-58
2023/09/29 02:54:59;;;;;;;13.52;7.50;;;;;;;9.15;100.00;94309.38;5032664;28;20167;-57
2023/09/29 02:57:25;;;;;;;12.38;6.50;;;;;;;9.15;100.00;94306.63;5030983;28;20038;-60
2023/09/29 02:59:53;;;;;;;12.43;7.70;;;;;;;9.13;100.00;94312.50;5032109;28;20042;-59
2023/09/29 03:02:20;;;;;;;12.77;7.47;;;;;;;9.15;100.00;94312.88;5032765;28;20045;-60
2023/09/29 03:04:47;;;;;;;12.13;7.15;;;;;;;9.19;100.00;94310.13;5032719;28;20053;-60
2023/09/29 03:07:14;;;;;;;13.07;7.15;;;;;;;9.03;100.00;94313.31;5031824;28;20860;-59
2023/09/29 03:09:42;;;;;;;11.65;7.03;;;;;;;9.03;100.00;94302.38;5032454;28;20493;-60
2023/09/29 03:12:09;;;;;;;13.15;7.22;;;;;;;9.05;100.00;94307.47;5032224;28;20038;-60
2023/09/29 03:14:35;;;;;;;12.20;7.00;;;;;;;9.10;100.00;94305.09;5032385;28;20051;-60
2023/09/29 03:17:02;;;;;;;11.60;7.30;;;;;;;9.13;100.00;94307.03;5031757;28;20041;-60
2023/09/29 03:19:32;;;;;;;13.45;7.38;;;;;;;9.16;100.00;94305.47;5032424;28;20045;-60
2023/09/29 03:21:59;;;;;;;13.10;7.15;;;;;;;9.19;100.00;94310.13;5018702;28;20406;-60
2023/09/29 03:24:27;;;;;;;13.95;7.20;;;;;;;9.17;100.00;94307.03;5030894;28;20045;-60
2023/09/29 03:26:56;;;;;;;11.70;7.10;;;;;;;9.16;100.00;94311.72;5019132;28;20049;-59
2023/09/29 03:29:23;;;;;;;12.15;6.95;;;;;;;9.20;100.00;94304.28;5031927;28;20045;-60
2023/09/29 03:31:53;;;;;;;12.85;7.38;;;;;;;9.11;100.00;94309.38;5031889;28;20072;-59
2023/09/29 03:34:20;;;;;;;12.68;7.60;;;;;;;9.04;100.00;94312.16;5032091;28;20046;-60
2023/09/29 03:36:50;;;;;;;12.40;7.40;;;;;;;9.07;100.00;94308.63;5031321;28;20425;-59
2023/09/29 03:39:18;;;;;;;12.80;7.67;;;;;;;8.93;100.00;94312.19;5031795;28;20051;-60
2023/09/29 03:41:45;;;;;;;13.05;7.30;;;;;;;8.87;100.00;94316.50;5031656;28;20056;-60
2023/09/29 03:44:12;;;;;;;12.73;8.05;;;;;;;8.83;100.00;94318.44;5031221;28;20397;-60
2023/09/29 03:46:39;;;;;;;13.30;7.68;;;;;;;8.88;100.00;94318.06;5030375;28;20037;-60
2023/09/29 03:49:06;;;;;;;12.18;7.57;;;;;;;8.97;100.00;94323.13;5031559;28;20037;-60
2023/09/29 03:51:33;;;;;;;12.47;7.37;;;;;;;8.98;100.00;94322.72;5031429;28;20042;-60
2023/09/29 03:54:00;;;;;;;12.88;7.80;;;;;;;8.98;100.00;94316.47;5046580;28;20058;-60
2023/09/29 03:56:27;;;;;;;13.93;7.60;;;;;;;8.98;100.00;94319.22;5031478;28;20049;-60
2023/09/29 03:58:55;;;;;;;14.02;7.70;;;;;;;9.03;100.00;94310.59;5031333;28;20045;-60
2023/09/29 04:01:22;;;;;;;14.73;8.27;;;;;;;9.01;100.00;94312.94;5031345;28;20033;-58
2023/09/29 04:03:49;;;;;;;14.47;7.57;;;;;;;8.93;100.00;94316.88;5030997;28;20045;-57
2023/09/29 04:06:16;;;;;;;15.18;8.10;;;;;;;8.81;100.00;94318.06;5031216;28;20052;-57
2023/09/29 04:08:43;;;;;;;14.90;8.13;;;;;;;8.74;100.00;94321.59;5031490;28;20049;-57
2023/09/29 04:11:10;;;;;;;14.48;8.40;;;;;;;8.75;100.00;94323.19;5030550;28;20045;-57
2023/09/29 04:13:37;;;;;;;17.10;8.68;;;;;;;8.67;100.00;94318.09;5031474;28;20048;-58
2023/09/29 04:16:05;;;;;;;14.20;8.23;;;;;;;8.64;100.00;94319.66;5030412;28;20402;-57
2023/09/29 04:18:32;;;;;;;15.40;8.68;;;;;;;8.56;100.00;94318.91;5031179;28;20045;-58
2023/09/29 04:21:02;;;;;;;14.25;8.40;;;;;;;8.58;100.00;94313.81;5030855;28;20674;-58
2023/09/29 04:23:29;;;;;;;15.13;8.40;;;;;;;8.66;100.00;94314.59;5029353;28;20108;-59
2023/09/29 04:25:56;;;;;;;13.88;8.65;;;;;;;8.72;100.00;94315.75;5029759;28;20091;-58
2023/09/29 04:28:23;;;;;;;14.37;8.70;;;;;;;8.70;100.00;94322.78;5029620;28;20037;-59
2023/09/29 04:30:50;;;;;;;14.10;8.57;;;;;;;8.66;100.00;94319.28;5030823;28;20099;-59
2023/09/29 04:33:18;;;;;;;14.40;8.68;;;;;;;8.63;100.00;94329.03;5030817;28;20056;-59
2023/09/29 04:35:45;;;;;;;16.60;8.93;;;;;;;8.58;100.00;94330.22;5031046;28;20046;-59
2023/09/29 04:38:12;;;;;;;15.43;9.43;;;;;;;8.54;100.00;94334.16;5014747;28;20328;-59
2023/09/29 04:40:39;;;;;;;14.60;9.07;;;;;;;8.62;100.00;94340.41;5030779;28;20061;-59
2023/09/29 04:43:06;;;;;;;14.73;8.90;;;;;;;8.65;100.00;94334.91;5029983;28;20044;-59
2023/09/29 04:45:33;;;;;;;14.88;8.48;;;;;;;8.62;100.00;94354.84;5030591;28;20560;-59
2023/09/29 04:48:01;;;;;;;15.35;8.48;;;;;;;8.62;100.00;94349.38;5030011;28;20033;-59
2023/09/29 04:50:29;;;;;;;14.57;8.65;;;;;;;8.73;100.00;94350.16;5030437;28;20051;-59
2023/09/29 04:52:57;;;;;;;15.40;8.63;;;;;;;8.80;100.00;94349.34;5029667;28;20091;-58
2023/09/29 04:55:23;;;;;;;12.82;8.30;;;;;;;8.85;100.00;94350.91;5030420;28;20046;-59
2023/09/29 04:57:52;;;;;;;16.30;8.27;;;;;;;8.90;100.00;94342.31;5029181;28;20045;-59
2023/09/29 05:00:19;;;;;;;14.13;8.45;;;;;;;8.94;100.00;94345.81;5030295;28;20041;-59
2023/09/29 05:02:47;;;;;;;15.23;8.73;;;;;;;8.86;100.00;94342.31;5030175;28;20072;-59
2023/09/29 05:05:14;;;;;;;16.27;8.53;;;;;;;8.94;100.00;94337.59;5029221;28;20742;-59
2023/09/29 05:07:44;;;;;;;14.18;8.60;;;;;;;8.98;100.00;94341.13;5030173;28;20041;-59
2023/09/29 05:10:15;;;;;;;14.88;8.77;;;;;;;8.96;100.00;94344.25;5012604;28;20043;-59
2023/09/29 05:12:43;;;;;;;14.05;8.57;;;;;;;9.00;100.00;94338.75;5029854;28;20654;-59
2023/09/29 05:15:10;;;;;;;14.20;8.80;;;;;;;8.90;100.00;94350.53;5022158;28;20046;-60
2023/09/29 05:17:37;;;;;;;16.87;9.33;;;;;;;8.87;100.00;94351.28;5030077;28;20045;-59
2023/09/29 05:20:18;;;;;;;15.88;8.73;;;;;;;8.74;100.00;94356.41;5018123;28;20698;-59
2023/09/29 05:22:44;;;;;;;15.35;8.60;;;;;;;8.73;100.00;94354.81;5016663;28;20556;-60
2023/09/29 05:25:11;;;;;;;14.88;8.70;;;;;;;8.73;100.00;94355.63;5028374;28;20049;-59
2023/09/29 05:27:38;;;;;;;18.48;8.93;;;;;;;8.85;100.00;94365.38;5029365;28;20382;-60
2023/09/29 05:30:05;;;;;;;14.90;8.57;;;;;;;9.06;100.00;94369.25;5029431;28;20450;-59
2023/09/29 05:32:33;;;;;;;17.33;8.73;;;;;;;9.10;100.00;94365.34;5029474;28;20115;-60
2023/09/29 05:35:00;;;;;;;15.35;8.18;;;;;;;9.26;100.00;94362.16;5029297;28;20053;-59
2023/09/29 05:37:27;;;;;;;17.55;9.05;;;;;;;9.42;100.00;94364.47;5029233;28;20080;-59
2023/09/29 05:39:53;;;;;;;12.95;8.02;;;;;;;9.51;100.00;94364.03;5029109;28;20126;-60
2023/09/29 05:42:21;;;;;;;14.47;8.87;;;;;;;9.65;100.00;94358.47;5029526;28;20046;-59
2023/09/29 05:45:03;;;;;;;15.15;8.80;;;;;;;9.77;100.00;94360.75;5029215;28;20123;-59
2023/09/29 05:47:30;;;;;;;16.60;9.50;;;;;;;9.65;100.00;94363.97;5029079;28;20134;-60
2023/09/29 05:49:57;;;;;;;17.33;9.40;;;;;;;9.56;100.00;94369.88;5028545;28;20054;-59
2023/09/29 05:52:42;;;;;;;15.95;9.38;;;;;;;9.59;100.00;94365.56;5029652;28;20045;-60
2023/09/29 05:55:26;;;;;;;15.77;9.07;;;;;;;9.75;100.00;94371.34;5028390;28;20824;-59
2023/09/29 05:57:52;;;;;;;14.18;8.85;;;;;;;9.75;100.00;94370.56;5028568;28;20049;-59
2023/09/29 06:00:20;;;;;;;17.67;10.13;;;;;;;9.70;100.00;94369.03;5023845;28;20449;-59
2023/09/29 06:02:47;;;;;;;18.55;9.75;;;;;;;9.54;100.00;94374.97;5028211;28;20072;-59
2023/09/29 06:05:14;;;;;;;16.05;9.75;;;;;;;9.50;100.00;94373.44;5029350;28;20059;-60
2023/09/29 06:07:41;;;;;;;16.40;9.50;;;;;;;9.53;100.00;94369.88;5029291;28;20053;-59
2023/09/29 06:10:09;;;;;;;19.13;9.50;;;;;;;9.71;100.00;94364.34;5028238;28;20044;-59
2023/09/29 06:12:37;;;;;;;17.77;9.50;;;;;;;9.85;100.00;94377.19;5029163;28;20047;-59
2023/09/29 06:15:05;;;;;;;16.73;8.98;;;;;;;9.95;100.00;94379.09;5019889;28;20037;-61
2023/09/29 06:17:32;;;;;;;14.63;8.98;;;;;;;10.02;100.00;94381.00;5024848;28;20049;-60
2023/09/29 06:19:59;;;;;;;14.53;8.67;;;;;;;10.02;100.00;94379.06;5028725;28;20414;-61
2023/09/29 06:22:25;;;;;;;15.07;8.68;;;;;;;10.15;100.00;94377.41;5028820;28;20048;-60
2023/09/29 06:24:52;;;;;;;15.18;8.77;;;;;;;10.27;100.00;94383.59;5028966;28;20038;-59
2023/09/29 06:27:19;;;;;;;15.18;8.75;;;;;;;10.31;100.00;94382.44;5021278;28;20047;-60
2023/09/29 06:29:49;;;;;;;14.00;8.63;;;;;;;10.49;100.00;94381.53;5029230;28;20071;-64
2023/09/29 06:32:16;;;;;;;15.23;8.20;;;;;;;10.70;100.00;94384.09;5028201;28;20327;-61
2023/09/29 06:34:43;;;;;;;13.30;8.05;;;;;;;10.97;100.00;94387.00;5028711;28;20049;-61
2023/09/29 06:37:11;;;;;;;16.40;8.63;;;;;;;10.97;100.00;94383.47;5028010;28;20397;-60
2023/09/29 06:39:37;;;;;;;15.52;8.05;;;;;;;10.95;100.00;94394.09;5028841;28;20057;-60
2023/09/29 06:42:04;;;;;;;14.23;8.30;;;;;;;11.12;100.00;94384.13;5028544;28;20076;-61
2023/09/29 06:44:32;;;;;;;17.40;8.70;;;;;;;11.48;100.00;94386.50;5027340;28;20504;-60
2023/09/29 06:46:59;;;;;;;15.55;8.77;;;;;;;11.98;100.00;94385.91;5028388;28;20045;-59
2023/09/29 06:49:26;;;;;;;14.07;9.00;;;;;;;12.45;100.00;94388.00;5028738;28;20409;-60
2023/09/29 06:51:53;;;;;;;16.55;9.18;;;;;;;12.89;100.00;94389.69;5028418;28;20053;-59
2023/09/29 06:54:20;;;;;;;16.77;8.88;;;;;;;13.50;100.00;94385.91;5026511;28;20044;-59
2023/09/29 06:56:46;;;;;;;15.40;9.27;;;;;;;13.50;100.00;94387.84;5023744;28;20051;-59
2023/09/29 06:59:13;;;;;;;15.63;9.15;;;;;;;13.57;100.00;94385.75;5020645;28;20695;-59
2023/09/29 07:01:40;;;;;;;18.30;8.98;;;;;;;13.53;100.00;94384.25;5028911;28;20054;-59
2023/09/29 07:04:07;;;;;;;14.57;9.50;;;;;;;14.02;100.00;94389.19;5028224;28;20045;-59
2023/09/29 07:06:36;;;;;;;14.00;9.18;;;;;;;14.33;100.00;94393.25;5028745;28;20556;-59
2023/09/29 07:09:07;;;;;;;15.40;8.40;;;;;;;14.68;100.00;94388.16;5028282;28;20041;-59
2023/09/29 07:11:34;;;;;;;15.13;8.82;;;;;;;15.13;100.00;94381.94;5028640;28;20045;-60
2023/09/29 07:14:00;;;;;;;12.15;8.18;;;;;;;15.61;100.00;94387.03;5028138;28;20034;-59
2023/09/29 07:16:28;;;;;;;13.85;8.73;;;;;;;15.76;100.00;94386.22;5028296;28;20045;-59
2023/09/29 07:18:55;;;;;;;17.35;8.60;;;;;;;15.58;100.00;94394.97;5026812;28;20410;-59
2023/09/29 07:21:22;;;;;;;17.83;8.83;;;;;;;15.60;100.00;94385.47;5030446;28;20406;-59
2023/09/29 07:23:49;;;;;;;14.52;8.25;;;;;;;15.61;100.00;94387.78;5031785;28;20257;-59
2023/09/29 07:26:16;;;;;;;13.40;8.40;;;;;;;15.87;100.00;94382.38;5031783;28;20041;-59
2023/09/29 07:28:43;;;;;;;13.25;7.90;;;;;;;16.24;100.00;94385.66;5032214;28;20049;-59
2023/09/29 07:31:10;;;;;;;13.70;8.18;;;;;;;16.46;100.00;94389.38;5031843;28;20479;-59
2023/09/29 07:33:37;;;;;;;12.97;7.30;;;;;;;16.83;100.00;94392.59;5032600;28;20055;-60
2023/09/29 07:36:05;;;;;;;10.52;7.00;;;;;;;16.68;100.00;94391.47;5031321;28;20091;-59
2023/09/29 07:38:32;;;;;;;11.70;6.72;;;;;;;16.77;100.00;94397.13;5030785;28;20094;-60
2023/09/29 07:41:01;;;;;;;10.68;6.75;;;;;;;17.22;100.00;94398.09;5031380;28;20278;-59
2023/09/29 07:43:28;;;;;;;10.13;6.65;;;;;;;17.57;100.00;94393.34;5032195;28;20054;-59
2023/09/29 07:45:55;;;;;;;10.73;6.67;;;;;;;17.92;100.00;94401.66;5031396;28;20492;-59
2023/09/29 07:48:22;;;;;;;9.57;6.53;;;;;;;18.38;100.00;94401.19;5031860;28;20038;-59
2023/09/29 07:50:49;;;;;;;9.75;6.57;;;;;;;18.74;100.00;94412.47;5028199;28;20044;-59
2023/09/29 07:53:16;;;;;;;9.45;6.53;;;;;;;19.70;100.00;94406.28;5021830;28;20037;-59
2023/09/29 07:55:43;;;;;;;10.05;6.78;;;;;;;19.72;100.00;94412.19;5030032;28;20045;-60
2023/09/29 07:58:10;;;;;;;11.40;6.13;;;;;;;19.25;100.00;94416.84;5031050;28;20046;-59
2023/09/29 08:00:36;;;;;;;12.27;7.00;;;;;;;18.93;100.00;94418.94;5031673;28;20681;-60
2023/09/29 08:03:03;;;;;;;10.60;6.82;;;;;;;19.17;100.00;94410.03;5031193;28;20050;-59
2023/09/29 08:05:31;;;;;;;9.80;6.72;;;;;;;19.92;100.00;94411.69;5025520;28;20049;-60
2023/09/29 08:07:58;;;;;;;11.25;7.20;;;;;;;21.05;100.00;94412.56;5024775;28;20053;-59
2023/09/29 08:10:24;;;;;;;8.70;6.37;;;;;;;24.37;86.88;94410.28;5031410;28;20047;-58
2023/09/29 08:12:52;;;;;;;10.98;6.60;;;;;;;26.63;72.99;94410.44;5031266;28;20052;-58
2023/09/29 08:15:21;;;;;;;8.88;5.80;;;;;;;27.16;65.49;94407.16;5031087;28;20045;-59
2023/09/29 08:17:48;;;;;;;8.85;5.93;;;;;;;27.25;64.85;94409.75;5030744;28;20453;-58
2023/09/29 08:20:17;;;;;;;9.25;6.00;;;;;;;27.12;65.06;94410.22;5031053;28;20041;-59
2023/09/29 08:22:45;;;;;;;9.87;6.00;;;;;;;28.02;60.44;94412.91;5031237;28;20418;-58
2023/09/29 08:25:15;;;;;;;9.05;5.90;;;;;;;27.27;60.79;94407.94;5029982;28;20931;-59
2023/09/29 08:27:42;;;;;;;9.45;6.30;;;;;;;24.69;71.53;94425.94;5030715;28;20049;-59
2023/09/29 08:30:10;;;;;;;9.30;6.30;;;;;;;23.37;84.17;94417.72;5017485;28;20057;-58
2023/09/29 08:32:39;;;;;;;9.05;6.15;;;;;;;23.40;84.42;94424.38;5030360;28;20050;-58
2023/09/29 08:35:06;;;;;;;10.07;5.70;;;;;;;25.64;76.29;94430.75;5030550;28;20041;-59
2023/09/29 08:37:33;;;;;;;8.25;5.63;;;;;;;28.91;59.90;94418.59;5030897;28;20041;-59
2023/09/29 08:40:00;;;;;;;11.63;5.50;;;;;;;26.38;67.58;94425.47;5030153;28;20051;-59
2023/09/29 08:42:37;;;;;;;7.50;5.22;;;;;;;27.16;63.24;94419.19;5030808;28;20049;-59
2023/09/29 08:45:09;;;;;;;7.28;5.43;;;;;;;25.54;70.14;94423.06;5030289;28;20057;-59
2023/09/29 08:47:38;;;;;;;12.27;5.80;;;;;;;23.12;83.76;94422.72;5031033;28;20067;-58
2023/09/29 08:50:09;;;;;;;8.57;5.88;;;;;;;22.54;93.69;94418.69;5029973;28;20053;-58
2023/09/29 08:52:36;;;;;;;8.07;5.70;;;;;;;24.66;81.76;94415.69;5030658;28;20038;-59
2023/09/29 08:55:03;;;;;;;7.88;5.57;;;;;;;28.03;65.83;94411.63;5029700;28;20051;-59
2023/09/29 08:57:30;;;;;;;7.45;5.40;;;;;;;28.01;60.10;94410.59;5030259;28;20049;-60
2023/09/29 08:59:59;;;;;;;7.53;5.10;;;;;;;28.14;58.23;94410.81;5029889;28;20043;-59
2023/09/29 09:02:26;;;;;;;7.50;4.93;;;;;;;27.44;61.48;94405.09;5030725;28;20048;-59
2023/09/29 09:04:53;;;;;;;9.85;5.15;;;;;;;29.73;57.34;94404.81;5028274;28;20045;-59
2023/09/29 09:07:20;;;;;;;8.15;5.40;;;;;;;29.57;53.87;94404.41;5030340;28;20054;-59
2023/09/29 09:09:49;;;;;;;7.25;4.85;;;;;;;29.97;51.27;94404.03;5029905;28;20600;-58
2023/09/29 09:12:17;;;;;;;7.03;4.87;;;;;;;29.94;50.62;94403.03;5030332;28;20047;-59
2023/09/29 09:14:47;;;;;;;6.78;4.78;;;;;;;30.76;50.30;94406.59;5029992;28;20052;-59
2023/09/29 09:17:14;;;;;;;8.50;4.90;;;;;;;30.20;49.08;94407.34;5029414;28;21668;-60
2023/09/29 09:19:50;;;;;;;6.57;4.78;;;;;;;31.80;46.30;94394.59;5030243;28;20502;-60
2023/09/29 09:22:31;;;;;;;6.15;4.47;;;;;;;31.68;44.87;94403.88;5029269;28;20821;-60
2023/09/29 09:25:12;;;;;;;7.50;4.10;;;;;;;32.67;43.28;94390.28;5029211;28;20719;-60
2023/09/29 09:27:41;;;;;;;11.52;4.50;;;;;;;31.64;44.36;94398.53;5029986;28;20417;-60
2023/09/29 09:30:25;;;;;;;7.40;4.70;;;;;;;31.87;45.18;94403.75;5029594;28;20518;-60
2023/09/29 09:32:52;;;;;;;6.03;4.47;;;;;;;31.69;43.47;94400.47;5017873;28;20046;-60
2023/09/29 09:35:37;;;;;;;5.70;4.30;;;;;;;31.24;44.99;94389.91;5029586;28;20518;-60
2023/09/29 09:38:05;;;;;;;7.93;4.07;;;;;;;30.81;46.78;94388.00;5029400;28;20069;-60
2023/09/29 09:40:32;;;;;;;8.05;4.30;;;;;;;30.79;45.77;94388.53;5029580;28;20526;-60
2023/09/29 09:43:03;;;;;;;8.65;4.60;;;;;;;29.70;47.96;94386.81;5029235;28;20095;-60
2023/09/29 09:45:37;;;;;;;6.32;4.22;;;;;;;30.20;47.64;94384.69;5029793;28;20409;-60
2023/09/29 09:48:04;;;;;;;5.93;4.10;;;;;;;29.65;48.16;94379.91;5029121;28;20417;-60
2023/09/29 09:50:36;;;;;;;6.23;4.50;;;;;;;29.62;48.31;94397.16;5017419;28;20042;-60
2023/09/29 09:53:07;;;;;;;5.80;4.13;;;;;;;30.00;47.75;94385.97;5028883;28;20053;-60
2023/09/29 09:55:39;;;;;;;7.05;4.30;;;;;;;29.33;49.26;94387.44;5029140;28;20041;-60
2023/09/29 09:58:12;;;;;;;6.68;4.28;;;;;;;28.67;50.74;94391.03;5028605;28;20052;-60
2023/09/29 10:00:45;;;;;;;8.65;4.55;;;;;;;28.93;50.39;94393.41;5029524;28;20042;-60
2023/09/29 10:03:16;;;;;;;6.30;4.40;;;;;;;28.72;50.63;94398.69;5028666;28;20037;-60
2023/09/29 10:05:53;;;;;;;6.53;4.20;;;;;;;28.84;51.08;94380.38;5027670;28;20049;-60
2023/09/29 10:08:31;;;;;;;9.10;4.40;;;;;;;28.23;53.89;94384.31;5028301;28;21588;-60
2023/09/29 10:11:12;;;;;;;6.90;4.70;;;;;;;29.28;50.71;94386.97;5028867;28;20052;-60
2023/09/29 10:13:44;;;;;;;7.32;4.38;;;;;;;28.85;50.52;94393.19;5029237;28;20668;-60
2023/09/29 10:16:22;;;;;;;6.77;4.00;;;;;;;29.97;48.99;94389.88;5028637;28;20413;-60
2023/09/29 10:19:01;;;;;;;6.65;4.15;;;;;;;30.90;46.67;94392.53;5028794;28;20051;-59
2023/09/29 10:21:33;;;;;;;7.05;4.38;;;;;;;28.60;52.32;94383.88;5029069;28;20041;-60
2023/09/29 10:24:05;;;;;;;6.95;4.10;;;;;;;29.34;51.17;94386.94;5020047;28;20042;-59
2023/09/29 10:26:49;;;;;;;7.15;4.03;;;;;;;30.58;47.01;94388.31;5025852;28;20033;-60
2023/09/29 10:29:20;;;;;;;7.57;4.10;;;;;;;29.20;50.27;94388.84;5031433;28;20038;-60
2023/09/29 10:31:49;;;;;;;5.75;4.28;;;;;;;29.78;49.20;94387.00;5023966;28;20057;-60
2023/09/29 10:34:24;;;;;;;6.95;4.22;;;;;;;30.50;47.53;94378.16;5028330;28;21814;-60
2023/09/29 10:36:56;;;;;;;6.28;4.40;;;;;;;30.57;48.28;94377.53;5028744;28;20037;-60
2023/09/29 10:39:27;;;;;;;7.63;4.25;;;;;;;32.83;43.97;94371.31;5028938;28;20045;-60
2023/09/29 10:42:14;;;;;;;5.83;4.10;;;;;;;32.56;42.92;94370.63;5028360;28;20491;-60
2023/09/29 10:44:46;;;;;;;7.95;4.20;;;;;;;31.55;45.09;94370.56;5029072;28;20045;-60
2023/09/29 10:47:14;;;;;;;7.47;4.30;;;;;;;31.43;44.75;94369.97;5028086;28;21601;-60
2023/09/29 10:49:45;;;;;;;7.40;4.10;;;;;;;30.75;46.51;94370.34;5028930;28;20650;-60
2023/09/29 10:52:25;;;;;;;7.95;4.93;;;;;;;31.09;44.75;94367.75;5028143;28;20550;-60
2023/09/29 10:54:56;;;;;;;5.73;4.10;;;;;;;31.33;43.97;94361.16;5028441;28;20494;-59
2023/09/29 10:57:25;;;;;;;6.05;4.22;;;;;;;32.61;42.31;94361.97;5032329;28;20522;-60
2023/09/29 10:59:59;;;;;;;7.68;4.10;;;;;;;30.61;44.91;94366.66;5032121;28;20044;-60
2023/09/29 11:02:31;;;;;;;7.10;4.00;;;;;;;30.31;45.57;94366.84;5032795;28;20491;-60
2023/09/29 11:05:07;;;;;;;6.95;4.40;;;;;;;30.70;45.34;94371.16;5031736;28;20091;-60
2023/09/29 11:08:09;;;;;;;9.47;4.50;;;;;;;29.98;47.21;94363.88;5031478;28;20053;-60
2023/09/29 11:10:36;;;;;;;6.00;4.50;;;;;;;30.17;47.21;94361.06;5016803;28;21636;-60
2023/09/29 11:13:03;;;;;;;7.15;4.47;;;;;;;28.87;50.21;94355.94;5031819;28;20072;-59
2023/09/29 11:15:38;;;;;;;8.82;4.47;;;;;;;30.14;48.22;94364.94;5032498;28;20471;-60
2023/09/29 11:18:05;;;;;;;7.22;4.35;;;;;;;29.13;51.17;94354.75;5031665;28;20052;-59
2023/09/29 11:20:31;;;;;;;6.53;4.80;;;;;;;27.64;55.02;94355.31;5032546;28;20552;-59
2023/09/29 11:23:00;;;;;;;7.22;4.80;;;;;;;27.66;57.13;94350.69;5031681;28;20176;-59
2023/09/29 11:25:26;;;;;;;6.88;4.60;;;;;;;28.24;57.54;94352.78;5032193;28;20056;-60
2023/09/29 11:27:53;;;;;;;7.97;4.35;;;;;;;26.88;59.19;94348.78;5031341;28;20417;-59
2023/09/29 11:30:24;;;;;;;7.70;4.85;;;;;;;25.97;64.10;94356.28;5032235;28;20041;-59
2023/09/29 11:32:54;;;;;;;7.00;4.70;;;;;;;25.55;68.49;94345.88;5019136;28;20721;-58